Time;durP1;ratioP1;P1;durP2;ratioP2;P2;SDS_P1;SDS_P2;PMS_P1;PMS_P2;Temp;Humidity;BMP_temperature;BMP_pressure;BME280_temperature;BME280_humidity;BME280_pressure;Samples;Min_cycle;Max_cycle;Signal;HPM_P1;HPM_P2
2021/10/25 00:00:09;;;;;;;3.17;0.68;;;21.80;42.50;;;;;;5011260;28;20522;-69
2021/10/25 00:02:36;;;;;;;3.30;0.98;;;22.00;42.10;;;;;;5013207;28;20029;-71
2021/10/25 00:05:04;;;;;;;3.00;0.82;;;22.30;41.20;;;;;;4994198;28;20030;-70
2021/10/25 00:07:32;;;;;;;2.00;0.68;;;22.50;39.60;;;;;;5011571;28;20437;-70
2021/10/25 00:09:59;;;;;;;2.65;0.70;;;22.40;40.10;;;;;;5015256;28;20075;-69
2021/10/25 00:12:27;;;;;;;1.40;0.50;;;22.20;38.50;;;;;;5010171;28;20101;-70
2021/10/25 00:14:54;;;;;;;4.18;0.80;;;22.40;39.00;;;;;;5011931;28;20051;-70
2021/10/25 00:17:22;;;;;;;2.40;0.82;;;22.50;41.20;;;;;;5011127;28;20196;-69
2021/10/25 00:19:49;;;;;;;2.13;0.80;;;22.50;39.60;;;;;;5014836;28;20022;-69
2021/10/25 00:22:16;;;;;;;3.90;1.58;;;22.80;41.10;;;;;;5011151;28;20063;-72
2021/10/25 00:24:43;;;;;;;6.45;3.15;;;23.00;39.70;;;;;;5012559;28;20018;-70
2021/10/25 00:27:12;;;;;;;1.83;0.90;;;23.10;41.50;;;;;;5015469;28;20025;-69
2021/10/25 00:29:38;;;;;;;3.03;0.95;;;23.10;40.00;;;;;;5013457;28;21712;-73
2021/10/25 00:32:06;;;;;;;3.15;0.93;;;23.30;41.50;;;;;;5013494;28;20014;-70
2021/10/25 00:34:33;;;;;;;2.47;0.70;;;23.50;39.40;;;;;;5013288;28;20373;-70
2021/10/25 00:37:02;;;;;;;4.40;0.90;;;23.60;40.90;;;;;;5015819;28;20042;-70
2021/10/25 00:39:33;;;;;;;3.17;1.00;;;23.80;39.20;;;;;;5013789;28;20025;-71
2021/10/25 00:42:01;;;;;;;3.70;0.70;;;24.00;38.30;;;;;;5014580;28;20037;-70
2021/10/25 00:44:31;;;;;;;2.25;0.88;;;24.00;39.00;;;;;;5011580;28;20068;-70
2021/10/25 00:46:59;;;;;;;2.97;1.00;;;23.80;40.10;;;;;;5012616;28;20029;-70
2021/10/25 00:49:26;;;;;;;3.42;0.98;;;24.00;38.80;;;;;;5012223;28;20018;-72
2021/10/25 00:51:54;;;;;;;2.50;0.80;;;23.80;37.70;;;;;;5012796;28;20113;-69
2021/10/25 00:54:21;;;;;;;1.15;0.77;;;23.50;39.10;;;;;;5102458;23;20048;-76
2021/10/25 00:56:49;;;;;;;4.50;1.08;;;23.40;39.60;;;;;;5076949;28;20017;-73
2021/10/25 00:59:16;;;;;;;2.72;0.80;;;23.40;41.50;;;;;;5079365;28;20022;-72
2021/10/25 01:01:44;;;;;;;5.00;0.80;;;23.30;39.80;;;;;;5079175;28;20020;-68
2021/10/25 01:04:11;;;;;;;1.70;0.75;;;23.50;39.50;;;;;;5078329;28;20016;-73
2021/10/25 01:06:40;;;;;;;3.00;0.82;;;23.60;38.60;;;;;;5078164;28;20043;-73
2021/10/25 01:09:07;;;;;;;3.95;0.90;;;23.40;41.10;;;;;;5076847;28;20028;-69
2021/10/25 01:11:37;;;;;;;5.40;1.10;;;23.60;41.20;;;;;;5079029;28;20013;-69
2021/10/25 01:14:04;;;;;;;4.95;1.00;;;24.20;38.60;;;;;;5070571;28;20179;-71
2021/10/25 01:16:31;;;;;;;2.25;0.70;;;24.50;40.00;;;;;;5076233;28;20033;-71
2021/10/25 01:18:58;;;;;;;1.33;0.60;;;24.90;40.30;;;;;;5079375;28;20020;-69
2021/10/25 01:21:26;;;;;;;3.00;0.63;;;25.40;41.00;;;;;;5077835;28;20033;-69
2021/10/25 01:23:54;;;;;;;3.33;1.05;;;25.60;36.40;;;;;;5078555;28;20074;-68
2021/10/25 01:26:23;;;;;;;2.33;1.10;;;25.50;36.00;;;;;;5076513;28;20081;-69
2021/10/25 01:28:53;;;;;;;1.58;0.88;;;25.30;36.40;;;;;;5074960;28;20028;-72
2021/10/25 01:31:24;;;;;;;2.60;0.73;;;25.20;36.80;;;;;;5073884;28;20039;-71
2021/10/25 01:33:52;;;;;;;3.97;0.85;;;24.90;36.90;;;;;;5078002;28;20052;-69
2021/10/25 01:36:21;;;;;;;2.25;0.88;;;24.90;37.90;;;;;;5078531;28;20028;-68
2021/10/25 01:38:49;;;;;;;3.92;0.82;;;25.40;36.00;;;;;;5073819;28;20024;-69
2021/10/25 01:41:17;;;;;;;3.08;0.77;;;25.20;36.40;;;;;;5076306;28;20024;-70
2021/10/25 01:43:44;;;;;;;3.83;2.00;;;25.20;36.30;;;;;;5066654;28;20029;-71
2021/10/25 01:46:11;;;;;;;2.35;1.10;;;25.50;37.90;;;;;;5065063;28;20026;-69
2021/10/25 01:48:38;;;;;;;2.83;0.95;;;25.80;34.90;;;;;;5069074;28;20537;-70
2021/10/25 01:51:05;;;;;;;3.15;1.00;;;25.80;35.40;;;;;;5066618;28;20073;-67
2021/10/25 01:53:35;;;;;;;4.05;1.52;;;25.80;34.90;;;;;;5066150;28;20062;-70
2021/10/25 01:56:02;;;;;;;3.63;1.40;;;25.20;35.20;;;;;;5068850;28;20028;-71
2021/10/25 01:58:30;;;;;;;3.30;1.40;;;25.10;36.70;;;;;;5074588;28;20077;-68
2021/10/25 02:00:57;;;;;;;2.63;0.93;;;25.40;39.00;;;;;;5075337;28;20030;-67
2021/10/25 02:03:24;;;;;;;2.78;0.93;;;25.60;35.60;;;;;;5077005;28;20050;-70
2021/10/25 02:05:51;;;;;;;3.75;0.77;;;25.90;35.50;;;;;;5078449;28;20080;-71
2021/10/25 02:08:20;;;;;;;1.92;0.70;;;25.90;34.90;;;;;;5075970;28;20526;-68
2021/10/25 02:10:47;;;;;;;2.28;0.98;;;25.60;36.40;;;;;;5063881;28;20032;-68
2021/10/25 02:13:16;;;;;;;3.83;1.15;;;25.90;35.60;;;;;;5070096;28;20027;-71
2021/10/25 02:15:45;;;;;;;2.83;0.80;;;26.20;37.60;;;;;;5070386;28;20494;-70
2021/10/25 02:18:13;;;;;;;2.05;0.95;;;26.80;35.80;;;;;;5070339;28;20024;-72
2021/10/25 02:20:43;;;;;;;2.92;0.90;;;27.00;34.20;;;;;;5077359;28;20550;-74
2021/10/25 02:23:10;;;;;;;3.17;0.75;;;27.30;38.20;;;;;;5070557;28;20033;-73
2021/10/25 02:25:37;;;;;;;3.15;0.90;;;27.30;34.50;;;;;;5070426;28;20457;-73
2021/10/25 02:28:04;;;;;;;2.05;0.90;;;27.20;33.20;;;;;;5064254;28;20478;-74
2021/10/25 02:30:33;;;;;;;3.38;0.95;;;26.90;34.10;;;;;;5070328;28;20025;-73
2021/10/25 02:33:01;;;;;;;3.85;1.25;;;27.10;37.90;;;;;;5070282;28;20467;-76
2021/10/25 02:35:29;;;;;;;2.47;0.88;;;27.50;34.40;;;;;;5067588;28;20032;-73
2021/10/25 02:37:57;;;;;;;3.75;0.93;;;27.70;34.20;;;;;;5067301;28;20025;-70
2021/10/25 02:40:27;;;;;;;2.58;1.10;;;27.30;35.20;;;;;;5065758;28;20367;-73
2021/10/25 02:42:54;;;;;;;3.22;1.00;;;27.10;34.20;;;;;;5059988;28;20107;-73
2021/10/25 02:45:22;;;;;;;3.42;1.10;;;26.70;36.60;;;;;;5066266;28;20029;-73
2021/10/25 02:47:50;;;;;;;2.17;1.00;;;27.00;36.60;;;;;;5065434;28;20074;-72
2021/10/25 02:50:17;;;;;;;3.80;0.90;;;27.60;34.10;;;;;;5060054;28;20025;-72
2021/10/25 02:52:45;;;;;;;2.42;1.00;;;27.50;33.90;;;;;;5060733;28;20157;-71
2021/10/25 02:55:12;;;;;;;2.63;1.00;;;27.60;33.40;;;;;;5070876;28;20032;-72
2021/10/25 02:57:40;;;;;;;4.70;1.02;;;27.20;34.00;;;;;;5070369;28;20348;-70
2021/10/25 03:00:10;;;;;;;2.75;1.48;;;26.90;34.60;;;;;;5066153;28;20586;-73
2021/10/25 03:02:37;;;;;;;4.22;0.98;;;26.60;35.60;;;;;;5070456;28;20027;-74
2021/10/25 03:05:05;;;;;;;4.57;1.00;;;26.50;36.30;;;;;;5069294;28;20017;-74
2021/10/25 03:07:32;;;;;;;2.85;1.20;;;26.90;35.00;;;;;;5070598;28;20096;-77
2021/10/25 03:09:59;;;;;;;2.83;1.13;;;26.90;33.70;;;;;;5072063;28;20438;-75
2021/10/25 03:12:26;;;;;;;2.53;1.30;;;26.90;35.10;;;;;;5074385;28;20070;-75
2021/10/25 03:14:54;;;;;;;3.28;0.90;;;27.10;34.20;;;;;;5075216;28;20392;-76
2021/10/25 03:17:21;;;;;;;3.00;1.00;;;26.90;34.90;;;;;;5074300;28;20074;-75
2021/10/25 03:19:48;;;;;;;2.45;0.80;;;26.90;34.10;;;;;;5070937;28;20060;-73
2021/10/25 03:22:16;;;;;;;1.30;0.70;;;26.90;34.60;;;;;;5070368;28;20028;-72
2021/10/25 03:24:44;;;;;;;8.82;1.10;;;27.10;33.80;;;;;;5083188;28;20044;-75
2021/10/25 03:27:11;;;;;;;2.63;0.70;;;27.20;35.30;;;;;;5070710;28;20098;-72
2021/10/25 03:29:39;;;;;;;1.27;0.70;;;26.90;34.30;;;;;;5070908;28;20025;-77
2021/10/25 03:32:07;;;;;;;4.82;0.95;;;27.00;35.00;;;;;;5071134;28;20068;-74
2021/10/25 03:34:34;;;;;;;2.22;1.00;;;26.50;34.00;;;;;;5071171;28;20020;-73
2021/10/25 03:37:02;;;;;;;2.45;0.65;;;26.50;35.80;;;;;;5071315;28;20103;-73
2021/10/25 03:39:32;;;;;;;2.83;0.90;;;26.70;35.30;;;;;;5069540;28;20074;-74
2021/10/25 03:42:01;;;;;;;1.73;0.80;;;26.90;33.90;;;;;;5070226;28;20440;-72
2021/10/25 03:44:44;;;;;;;4.75;1.27;;;26.50;33.70;;;;;;5072939;28;20108;-77
2021/10/25 03:50:19;;;;;;;1.48;0.55;;;26.50;34.80;;;;;;5061221;28;20037;-74
2021/10/25 03:52:55;;;;;;;2.42;0.60;;;26.70;36.30;;;;;;5071197;28;20027;-74
2021/10/25 04:28:00;;;;;;;2.35;0.70;;;29.10;32.00;;;;;;5067748;28;20521;-75
2021/10/25 04:30:31;;;;;;;2.83;0.80;;;28.90;32.40;;;;;;5064191;28;20565;-71
2021/10/25 04:32:59;;;;;;;1.52;0.82;;;28.80;31.40;;;;;;5068355;28;20332;-70
2021/10/25 04:35:27;;;;;;;1.63;0.68;;;27.90;31.80;;;;;;4716505;28;10000448;-67
2021/10/25 04:37:54;;;;;;;4.30;1.05;;;27.80;31.90;;;;;;5061760;28;20119;-73
2021/10/25 04:40:21;;;;;;;1.75;0.70;;;28.00;32.70;;;;;;5068805;28;20056;-72
2021/10/25 04:42:48;;;;;;;2.35;0.90;;;28.10;32.00;;;;;;5068502;28;20028;-72
2021/10/25 04:45:18;;;;;;;6.70;1.92;;;28.10;38.30;;;;;;5068259;28;20090;-67
2021/10/25 04:47:45;;;;;;;4.57;1.70;;;27.90;41.50;;;;;;5068146;28;20016;-70
2021/10/25 04:50:13;;;;;;;6.70;1.73;;;27.50;42.40;;;;;;5067952;28;20405;-70
2021/10/25 04:52:40;;;;;;;5.15;1.98;;;27.50;42.50;;;;;;5061321;28;20418;-67
2021/10/25 04:55:07;;;;;;;5.88;1.98;;;27.30;42.50;;;;;;5068090;28;20471;-72
2021/10/25 04:57:34;;;;;;;3.60;1.33;;;26.60;43.20;;;;;;5068589;28;20412;-71
2021/10/25 05:00:01;;;;;;;4.88;1.60;;;26.10;44.40;;;;;;5067500;28;20085;-73
2021/10/25 05:02:28;;;;;;;7.97;2.00;;;25.80;45.40;;;;;;5069903;28;20113;-72
2021/10/25 05:04:55;;;;;;;6.78;2.15;;;25.70;45.30;;;;;;5076050;28;20082;-71
2021/10/25 05:07:22;;;;;;;4.18;1.75;;;25.60;45.50;;;;;;5069758;28;20035;-70
2021/10/25 05:09:49;;;;;;;7.07;1.70;;;25.60;45.30;;;;;;5062732;28;20032;-68
2021/10/25 05:12:16;;;;;;;5.63;1.75;;;25.90;45.30;;;;;;5067878;28;20025;-68
2021/10/25 05:14:44;;;;;;;4.50;1.70;;;25.90;45.10;;;;;;5060065;28;20157;-67
2021/10/25 05:17:11;;;;;;;7.65;2.55;;;25.70;46.10;;;;;;5066468;28;20078;-71
2021/10/25 05:19:39;;;;;;;5.95;1.58;;;25.20;49.70;;;;;;5067767;28;20441;-65
2021/10/25 05:22:06;;;;;;;4.47;1.25;;;25.30;47.40;;;;;;5067296;28;20063;-69
2021/10/25 05:24:34;;;;;;;3.92;1.73;;;25.10;47.10;;;;;;5067697;28;20052;-69
2021/10/25 05:27:01;;;;;;;4.80;1.77;;;24.90;48.30;;;;;;5067953;28;20088;-69
2021/10/25 05:29:28;;;;;;;7.18;1.40;;;25.00;48.40;;;;;;5066303;28;20517;-66
2021/10/25 05:31:55;;;;;;;4.60;1.60;;;24.80;48.70;;;;;;5066194;28;20024;-70
2021/10/25 05:34:22;;;;;;;3.80;2.17;;;24.80;48.00;;;;;;5067249;28;20170;-69
2021/10/25 05:36:49;;;;;;;5.20;1.58;;;24.70;47.20;;;;;;5067111;28;20043;-69
2021/10/25 05:39:16;;;;;;;5.28;1.35;;;24.50;47.60;;;;;;5068074;28;20059;-72
2021/10/25 05:41:44;;;;;;;7.03;1.85;;;24.40;49.10;;;;;;5068202;28;20129;-69
2021/10/25 05:44:11;;;;;;;5.05;1.77;;;24.40;49.00;;;;;;5067484;28;20028;-67
2021/10/25 05:46:39;;;;;;;8.25;2.30;;;24.00;50.10;;;;;;5064292;28;20067;-70
2021/10/25 05:49:06;;;;;;;6.18;1.70;;;23.70;51.80;;;;;;5064939;28;20155;-69
2021/10/25 05:51:33;;;;;;;4.55;1.60;;;23.60;52.20;;;;;;5057772;28;20017;-72
2021/10/25 05:54:04;;;;;;;6.30;1.50;;;23.50;52.90;;;;;;5066914;28;20105;-70
2021/10/25 05:56:31;;;;;;;7.50;1.75;;;23.70;53.30;;;;;;5067153;28;20341;-70
2021/10/25 05:59:00;;;;;;;7.80;1.85;;;23.90;53.10;;;;;;5067087;28;20024;-68
2021/10/25 06:01:38;;;;;;;7.47;1.92;;;24.20;51.90;;;;;;5066096;28;20028;-74
2021/10/25 06:04:07;;;;;;;7.28;1.90;;;24.00;52.60;;;;;;5064421;28;20481;-67
2021/10/25 06:06:35;;;;;;;5.85;1.55;;;23.60;52.30;;;;;;5070350;28;20108;-68
2021/10/25 06:09:04;;;;;;;4.47;1.88;;;23.40;54.40;;;;;;5070221;28;20020;-68
2021/10/25 06:11:32;;;;;;;8.77;1.65;;;23.60;54.20;;;;;;5063557;28;20099;-69
2021/10/25 06:14:05;;;;;;;5.50;2.00;;;23.20;55.20;;;;;;5072017;28;20039;-72
2021/10/25 06:19:20;;;;;;;7.65;1.85;;;23.70;54.40;;;;;;5063421;28;20555;-70
2021/10/25 06:21:47;;;;;;;5.78;1.70;;;23.80;53.90;;;;;;5065959;28;20086;-67
2021/10/25 06:24:13;;;;;;;6.80;1.98;;;23.90;53.30;;;;;;5069345;28;20035;-72
2021/10/25 06:26:41;;;;;;;7.90;1.95;;;24.10;52.80;;;;;;5071029;28;20020;-70
2021/10/25 06:29:09;;;;;;;6.57;1.77;;;24.00;52.70;;;;;;5071007;28;20024;-67
2021/10/25 06:31:36;;;;;;;7.30;1.75;;;24.10;53.10;;;;;;5068201;28;20493;-68
2021/10/25 06:34:08;;;;;;;7.50;2.08;;;24.10;52.10;;;;;;5074950;28;20047;-78
2021/10/25 06:36:36;;;;;;;5.30;1.67;;;23.80;52.80;;;;;;5072926;28;20029;-74
2021/10/25 06:39:12;;;;;;;7.45;1.55;;;24.40;52.30;;;;;;5074568;28;20024;-79
2021/10/25 06:41:39;;;;;;;4.32;1.40;;;24.80;51.60;;;;;;5070413;28;20335;-70
2021/10/25 06:44:06;;;;;;;7.25;2.05;;;24.80;51.70;;;;;;5074772;28;20026;-69
2021/10/25 06:46:35;;;;;;;5.22;1.50;;;24.90;51.10;;;;;;5073824;28;21314;-67
2021/10/25 06:49:03;;;;;;;5.53;1.42;;;24.50;52.20;;;;;;5073198;28;20028;-70
2021/10/25 06:51:30;;;;;;;6.57;2.05;;;24.80;51.20;;;;;;5071217;28;20033;-70
2021/10/25 06:53:57;;;;;;;4.45;2.08;;;24.60;51.10;;;;;;5067527;28;20036;-63
2021/10/25 06:56:24;;;;;;;7.75;2.35;;;24.20;52.80;;;;;;5075966;28;20020;-70
2021/10/25 06:58:50;;;;;;;7.85;1.95;;;24.60;51.50;;;;;;5079096;28;20482;-69
2021/10/25 07:01:18;;;;;;;6.22;1.40;;;24.30;52.00;;;;;;5079464;28;20032;-68
2021/10/25 07:03:45;;;;;;;3.28;1.38;;;23.90;53.00;;;;;;5077673;28;20041;-70
2021/10/25 07:06:17;;;;;;;6.60;1.83;;;24.10;52.60;;;;;;5074341;28;20028;-64
2021/10/25 07:08:48;;;;;;;5.57;1.60;;;24.40;51.80;;;;;;5080764;28;20028;-66
2021/10/25 07:11:16;;;;;;;3.57;1.27;;;24.60;52.70;;;;;;5080901;28;20043;-68
2021/10/25 07:13:48;;;;;;;3.30;1.30;;;24.90;51.20;;;;;;5081292;28;20028;-68
2021/10/25 07:16:20;;;;;;;6.65;1.63;;;24.60;51.60;;;;;;5073306;28;20048;-67
2021/10/25 07:21:49;;;;;;;5.75;1.83;;;24.40;52.30;;;;;;5074231;28;20031;-65
2021/10/25 08:10:11;;;;;;;4.90;1.60;;;18.40;79.30;;;;;;5062941;28;20028;-66
2021/10/25 08:12:45;;;;;;;4.95;1.80;;;18.40;80.90;;;;;;5066197;28;20128;-71
2021/10/25 08:15:21;;;;;;;6.10;2.03;;;18.20;83.40;;;;;;5074879;28;20304;-68
2021/10/25 08:17:52;;;;;;;11.38;3.90;;;18.00;87.10;;;;;;5071975;28;20089;-68
2021/10/25 08:20:20;;;;;;;6.25;2.70;;;18.00;87.60;;;;;;5065544;28;20020;-66
2021/10/25 08:22:47;;;;;;;7.78;1.67;;;17.90;91.20;;;;;;5074374;28;20063;-64
2021/10/25 08:25:14;;;;;;;8.43;2.20;;;17.90;90.00;;;;;;5068492;28;20035;-71
2021/10/25 08:27:42;;;;;;;9.90;2.00;;;17.80;90.60;;;;;;5071697;28;20020;-68
2021/10/25 08:30:12;;;;;;;7.15;2.33;;;17.70;91.20;;;;;;5074476;28;20020;-68
2021/10/25 08:35:32;;;;;;;6.90;1.85;;;17.50;91.60;;;;;;5068065;28;20035;-67
2021/10/25 08:40:44;;;;;;;5.55;2.17;;;17.20;93.10;;;;;;5065397;28;20624;-71
2021/10/25 08:43:12;;;;;;;8.38;2.42;;;17.00;93.20;;;;;;5071404;28;20024;-70
2021/10/25 08:45:40;;;;;;;12.77;4.18;;;16.80;93.50;;;;;;5070758;28;20020;-70
2021/10/25 08:48:08;;;;;;;8.48;1.83;;;16.80;93.80;;;;;;5065444;28;20261;-69
2021/10/25 08:50:35;;;;;;;7.32;2.47;;;16.70;94.50;;;;;;5069941;28;20541;-66
2021/10/25 08:53:05;;;;;;;6.28;2.10;;;16.60;94.40;;;;;;5069469;28;20054;-68
2021/10/25 08:55:32;;;;;;;6.63;1.77;;;16.60;94.00;;;;;;5070049;28;20036;-77
2021/10/25 08:58:00;;;;;;;4.65;1.95;;;16.60;94.50;;;;;;5067576;28;20032;-74
2021/10/25 09:00:42;;;;;;;8.15;1.52;;;16.60;94.30;;;;;;5070205;28;20016;-65
2021/10/25 09:03:10;;;;;;;4.95;1.90;;;16.60;94.30;;;;;;5071474;28;20099;-69
2021/10/25 09:05:38;;;;;;;6.63;2.47;;;16.50;94.40;;;;;;5069633;28;20142;-66
2021/10/25 09:08:07;;;;;;;3.53;1.70;;;16.40;94.60;;;;;;5068627;28;20028;-66
2021/10/25 09:10:36;;;;;;;6.45;1.63;;;16.40;94.40;;;;;;5065860;28;20036;-68
2021/10/25 09:13:17;;;;;;;5.00;2.38;;;16.40;95.10;;;;;;5068861;28;20074;-69
2021/10/25 09:15:51;;;;;;;6.05;1.80;;;16.40;95.80;;;;;;5064496;28;20036;-69
2021/10/25 09:18:22;;;;;;;8.80;1.95;;;16.40;95.70;;;;;;5065621;28;21026;-66
2021/10/25 09:21:10;;;;;;;5.50;1.52;;;16.40;95.20;;;;;;5069281;28;20078;-68
2021/10/25 09:23:41;;;;;;;3.47;1.63;;;16.30;96.20;;;;;;5066080;28;20517;-71
2021/10/25 09:26:17;;;;;;;8.18;1.45;;;16.30;95.60;;;;;;5072413;28;20496;-69
2021/10/25 09:28:56;;;;;;;5.38;1.73;;;16.40;96.00;;;;;;5069441;28;20527;-65
2021/10/25 09:31:30;;;;;;;5.60;1.90;;;16.30;96.20;;;;;;5067817;28;20016;-68
2021/10/25 09:34:05;;;;;;;3.78;2.03;;;16.30;95.90;;;;;;5067293;28;20024;-73
2021/10/25 09:36:37;;;;;;;2.38;1.42;;;16.20;96.20;;;;;;5065407;28;20037;-66
2021/10/25 09:50:05;;;;;;;4.28;1.77;;;16.00;97.50;;;;;;5068457;28;20039;-66
2021/10/25 09:52:38;;;;;;;5.85;1.63;;;16.00;97.70;;;;;;5063439;28;20054;-71
2021/10/25 09:55:09;;;;;;;3.72;1.90;;;16.00;97.30;;;;;;5069334;28;20032;-69
2021/10/25 09:57:42;;;;;;;4.53;1.67;;;16.00;97.70;;;;;;5068748;28;20580;-68
2021/10/25 10:00:11;;;;;;;7.22;1.98;;;16.00;96.90;;;;;;5064770;28;20028;-67
2021/10/25 10:02:38;;;;;;;3.63;1.63;;;16.00;97.20;;;;;;5066820;28;20537;-69
2021/10/25 10:05:10;;;;;;;6.22;1.98;;;16.00;96.90;;;;;;5067949;28;20031;-68
2021/10/25 10:07:38;;;;;;;5.07;1.90;;;15.90;96.80;;;;;;5071273;28;20021;-72
2021/10/25 10:10:09;;;;;;;5.88;1.67;;;15.90;97.10;;;;;;5066281;28;20028;-69
2021/10/25 10:12:40;;;;;;;7.72;1.60;;;15.90;97.20;;;;;;5067813;28;20132;-68
2021/10/25 10:15:09;;;;;;;5.55;1.67;;;15.90;97.20;;;;;;5068159;28;20033;-67
2021/10/25 10:18:00;;;;;;;6.65;2.13;;;15.80;97.40;;;;;;5070323;28;20045;-66
2021/10/25 10:20:31;;;;;;;6.78;1.88;;;15.90;97.40;;;;;;5067202;28;20313;-68
2021/10/25 10:23:01;;;;;;;7.43;1.90;;;16.00;96.70;;;;;;5066185;28;20020;-66
2021/10/25 10:25:53;;;;;;;6.10;1.88;;;16.00;97.50;;;;;;5071005;28;20128;-75
2021/10/25 10:28:42;;;;;;;8.30;1.73;;;16.00;96.70;;;;;;5064930;28;20027;-75
2021/10/25 10:31:11;;;;;;;4.22;1.85;;;16.00;97.60;;;;;;5067458;28;20448;-67
2021/10/25 10:33:44;;;;;;;6.88;2.00;;;16.00;97.70;;;;;;5066021;28;20028;-71
2021/10/25 10:36:22;;;;;;;7.38;1.92;;;15.90;97.30;;;;;;5068415;28;20051;-72
2021/10/25 10:38:54;;;;;;;7.65;2.13;;;15.90;97.70;;;;;;5064124;28;20028;-75
2021/10/25 10:41:23;;;;;;;;;;;16.00;96.40;;;;;;5063688;28;20032;-73
2021/10/25 10:44:05;;;;;;;8.77;2.75;;;16.00;96.90;;;;;;5069029;28;20358;-72
2021/10/25 10:47:20;;;;;;;;;;;16.00;96.90;;;;;;5074016;28;20055;-71
2021/10/25 10:49:51;;;;;;;4.32;2.00;;;16.00;97.50;;;;;;5060555;28;20032;-67
2021/10/25 10:55:09;;;;;;;7.47;1.90;;;16.10;96.30;;;;;;5070132;28;20052;-72
2021/10/25 11:00:30;;;;;;;11.85;1.75;;;16.10;96.50;;;;;;5071020;28;20459;-74
2021/10/25 11:02:59;;;;;;;9.15;1.92;;;16.20;96.90;;;;;;5071706;28;20035;-67
2021/10/25 11:05:37;;;;;;;5.55;1.63;;;16.30;96.10;;;;;;5072137;28;20017;-74
2021/10/25 11:08:13;;;;;;;6.75;1.90;;;16.20;96.30;;;;;;5069053;28;20478;-74
2021/10/25 11:10:46;;;;;;;10.27;2.33;;;16.20;96.00;;;;;;5069915;28;20419;-74
2021/10/25 11:13:19;;;;;;;9.70;2.15;;;16.30;96.00;;;;;;5071897;28;20069;-73
2021/10/25 11:16:16;;;;;;;6.47;1.85;;;16.30;95.50;;;;;;5072413;28;20427;-66
2021/10/25 11:18:48;;;;;;;5.80;2.55;;;16.30;95.60;;;;;;5068983;28;20028;-74
2021/10/25 11:21:24;;;;;;;5.05;1.75;;;16.30;96.30;;;;;;5068436;28;20112;-68
2021/10/25 11:23:55;;;;;;;6.65;2.22;;;16.30;95.60;;;;;;5068768;28;20526;-74
2021/10/25 11:26:29;;;;;;;4.80;1.85;;;16.30;95.10;;;;;;5067247;28;20028;-67
2021/10/25 11:29:09;;;;;;;7.82;2.00;;;16.30;95.20;;;;;;5067847;28;20012;-72
2021/10/25 11:32:07;;;;;;;6.50;1.60;;;16.40;95.20;;;;;;5068103;28;20021;-67
2021/10/25 11:34:45;;;;;;;7.20;2.40;;;16.30;95.30;;;;;;5058690;28;20398;-73
2021/10/25 11:37:19;;;;;;;7.03;2.30;;;16.20;95.80;;;;;;5065836;28;20115;-67
2021/10/25 11:40:04;;;;;;;6.57;2.90;;;16.20;95.60;;;;;;5068074;28;20031;-68
2021/10/25 11:42:37;;;;;;;6.97;2.83;;;16.10;96.10;;;;;;5066510;28;20024;-67
2021/10/25 11:45:25;;;;;;;5.88;1.80;;;16.00;96.50;;;;;;5067208;28;20567;-74
2021/10/25 11:47:53;;;;;;;8.05;2.78;;;16.00;96.30;;;;;;5066520;28;20029;-67
2021/10/25 11:50:23;;;;;;;9.32;2.42;;;16.00;96.30;;;;;;5058170;28;20029;-66
2021/10/25 11:53:05;;;;;;;9.45;2.42;;;15.90;96.60;;;;;;5068895;28;20503;-71
2021/10/25 11:55:40;;;;;;;4.28;1.85;;;15.70;96.80;;;;;;5061738;28;20025;-72
2021/10/25 11:58:10;;;;;;;4.32;1.73;;;15.60;97.40;;;;;;5062743;28;20479;-74
2021/10/25 12:00:40;;;;;;;4.05;2.00;;;15.50;97.80;;;;;;5067570;28;20066;-74
2021/10/25 12:03:12;;;;;;;4.50;1.83;;;15.40;98.20;;;;;;5067885;28;20027;-67
2021/10/25 12:05:40;;;;;;;5.28;2.17;;;15.20;98.30;;;;;;5062337;28;20041;-74
2021/10/25 12:08:13;;;;;;;12.65;2.45;;;15.10;98.80;;;;;;5060470;28;20509;-73
2021/10/25 12:10:42;;;;;;;9.00;1.90;;;15.10;99.20;;;;;;5064236;28;20032;-67
2021/10/25 12:13:11;;;;;;;10.98;2.92;;;15.00;99.30;;;;;;5067049;28;20033;-67
2021/10/25 12:16:00;;;;;;;10.48;2.40;;;14.80;99.90;;;;;;5067295;28;20032;-74
2021/10/25 12:18:28;;;;;;;7.63;2.13;;;14.80;99.90;;;;;;5064673;28;20376;-73
2021/10/25 12:20:58;;;;;;;11.00;2.40;;;14.80;99.90;;;;;;5067286;28;20036;-74
2021/10/25 12:23:26;;;;;;;8.02;2.40;;;14.80;99.90;;;;;;5066409;28;20533;-73
2021/10/25 12:25:58;;;;;;;5.30;1.80;;;14.80;99.90;;;;;;5065348;28;20486;-73
2021/10/25 12:28:26;;;;;;;8.37;2.33;;;14.70;99.90;;;;;;5064283;28;20021;-73
2021/10/25 12:31:07;;;;;;;5.72;2.28;;;14.50;99.90;;;;;;5064755;28;20104;-73
2021/10/25 12:33:38;;;;;;;5.55;2.10;;;14.40;99.90;;;;;;5067135;28;20494;-67
2021/10/25 12:36:36;;;;;;;7.43;2.40;;;14.30;99.90;;;;;;5060247;28;20036;-67
2021/10/25 12:39:09;;;;;;;5.80;2.13;;;14.20;99.90;;;;;;5059463;28;20474;-73
2021/10/25 12:41:59;;;;;;;10.02;2.22;;;14.20;99.90;;;;;;5067224;28;20035;-67
2021/10/25 12:44:44;;;;;;;5.85;2.72;;;14.10;99.90;;;;;;5060004;28;20467;-67
2021/10/25 12:47:20;;;;;;;6.68;2.20;;;14.00;99.90;;;;;;5066232;28;20569;-72
2021/10/25 12:49:50;;;;;;;7.05;2.00;;;14.00;99.90;;;;;;5065132;28;20543;-66
2021/10/25 12:52:18;;;;;;;7.40;2.30;;;14.10;99.90;;;;;;5064548;28;20047;-73
2021/10/25 12:54:47;;;;;;;6.50;2.28;;;14.10;99.90;;;;;;5069228;22;20056;-72
2021/10/25 12:57:22;;;;;;;5.82;2.13;;;13.90;99.90;;;;;;5067173;28;20450;-73
2021/10/25 13:00:06;;;;;;;3.45;1.83;;;13.90;99.90;;;;;;5065692;28;20363;-74
2021/10/25 13:02:47;;;;;;;6.15;2.25;;;13.70;99.90;;;;;;5066565;28;20029;-75
2021/10/25 13:05:21;;;;;;;6.78;2.22;;;13.50;99.90;;;;;;5067048;28;20107;-73
2021/10/25 13:07:52;;;;;;;5.90;1.92;;;13.50;99.90;;;;;;5066717;28;20024;-73
2021/10/25 13:10:25;;;;;;;6.60;2.17;;;13.70;99.90;;;;;;5060395;28;20028;-66
2021/10/25 13:12:54;;;;;;;25.83;4.32;;;13.70;99.90;;;;;;5066399;28;20479;-74
2021/10/25 13:15:23;;;;;;;22.00;4.10;;;13.60;99.90;;;;;;5062845;28;20250;-73
2021/10/25 13:17:52;;;;;;;26.95;4.47;;;13.60;99.90;;;;;;5067855;28;20020;-68
2021/10/25 13:20:21;;;;;;;19.15;3.65;;;13.70;99.90;;;;;;5068787;28;20484;-66
2021/10/25 13:22:50;;;;;;;35.03;4.68;;;13.70;99.90;;;;;;5064775;28;20153;-72
2021/10/25 13:25:18;;;;;;;32.50;4.68;;;13.60;99.90;;;;;;5064394;28;20022;-73
2021/10/25 13:27:46;;;;;;;28.70;6.68;;;13.60;99.90;;;;;;5069136;28;20043;-66
2021/10/25 13:30:14;;;;;;;44.45;7.70;;;13.70;99.90;;;;;;5065582;28;20032;-73
2021/10/25 13:32:42;;;;;;;44.85;7.00;;;13.70;99.90;;;;;;5065234;28;20028;-66
2021/10/25 13:35:10;;;;;;;35.60;8.18;;;13.70;99.90;;;;;;5067736;28;20021;-66
2021/10/25 13:37:37;;;;;;;44.67;8.05;;;13.80;99.90;;;;;;5062386;28;20021;-67
2021/10/25 13:40:06;;;;;;;38.22;8.05;;;14.00;99.90;;;;;;5068710;28;20138;-66
2021/10/25 13:42:34;;;;;;;47.70;7.82;;;14.10;99.90;;;;;;5067309;28;20105;-73
2021/10/25 13:45:01;;;;;;;59.63;9.63;;;14.20;99.90;;;;;;5068171;28;20028;-66
2021/10/25 13:47:28;;;;;;;46.17;7.50;;;14.20;99.90;;;;;;5066845;28;20047;-66
2021/10/25 13:49:56;;;;;;;52.13;9.73;;;14.20;99.90;;;;;;5068090;28;20403;-66
2021/10/25 13:52:25;;;;;;;55.28;8.32;;;14.10;99.90;;;;;;5065220;28;20100;-66
2021/10/25 13:54:53;;;;;;;46.55;8.90;;;14.10;99.90;;;;;;5068130;28;20048;-67
2021/10/25 13:57:22;;;;;;;35.80;7.53;;;14.10;99.90;;;;;;5067442;28;20494;-72
2021/10/25 13:59:50;;;;;;;30.27;6.63;;;14.10;99.90;;;;;;5061086;28;20038;-67
2021/10/25 14:02:23;;;;;;;39.13;5.97;;;14.10;99.90;;;;;;5067862;28;20077;-67
2021/10/25 14:04:53;;;;;;;21.67;5.28;;;14.20;99.90;;;;;;5060727;28;20028;-70
2021/10/25 14:07:23;;;;;;;21.38;4.82;;;14.20;99.90;;;;;;5068196;28;20024;-67
2021/10/25 14:09:55;;;;;;;23.17;5.13;;;14.30;99.90;;;;;;5059660;28;20734;-68
2021/10/25 14:12:28;;;;;;;19.55;3.83;;;14.50;99.90;;;;;;5068291;28;20021;-73
2021/10/25 14:15:08;;;;;;;20.80;4.45;;;14.50;99.90;;;;;;5066818;28;20028;-74
2021/10/25 14:17:35;;;;;;;21.58;5.05;;;14.50;99.90;;;;;;5068328;28;20021;-66
2021/10/25 14:20:03;;;;;;;24.55;4.65;;;14.70;99.90;;;;;;5068534;28;20033;-68
2021/10/25 14:22:30;;;;;;;24.67;4.10;;;14.70;99.90;;;;;;5068728;28;20107;-67
2021/10/25 14:24:57;;;;;;;20.13;4.07;;;14.70;99.90;;;;;;5066651;28;20039;-68
2021/10/25 14:27:24;;;;;;;14.70;3.88;;;14.80;99.90;;;;;;5067308;28;20058;-68
2021/10/25 14:29:51;;;;;;;20.42;4.18;;;14.80;99.90;;;;;;5063461;28;20519;-76
2021/10/25 14:32:18;;;;;;;15.57;3.92;;;14.80;99.90;;;;;;5068246;28;20104;-67
2021/10/25 14:34:45;;;;;;;11.55;3.42;;;14.90;99.90;;;;;;5065775;28;20077;-68
2021/10/25 14:37:13;;;;;;;13.40;4.40;;;15.00;99.90;;;;;;5063439;28;20044;-71
2021/10/25 14:39:42;;;;;;;10.93;3.75;;;15.10;99.90;;;;;;5067659;28;20028;-68
2021/10/25 14:42:19;;;;;;;14.48;4.00;;;15.10;99.90;;;;;;5067496;28;20559;-67
2021/10/25 14:44:59;;;;;;;13.13;3.92;;;15.10;99.90;;;;;;5064011;28;20573;-67
2021/10/25 14:57:42;;;;;;;28.05;5.05;;;15.00;99.90;;;;;;5071420;28;20321;-68
2021/10/25 15:00:09;;;;;;;29.85;5.78;;;15.00;99.90;;;;;;5069706;28;20036;-67